createdAt,value
2017-09-09T00:00:34.861Z,15.17
2017-09-09T00:01:15.393Z,15.16
2017-09-09T00:01:55.930Z,15.13
2017-09-09T00:02:36.463Z,15.19
2017-09-09T00:03:16.989Z,15.14
2017-09-09T00:03:57.517Z,15.16
2017-09-09T00:04:38.051Z,15.14
2017-09-09T00:05:18.587Z,15.16
2017-09-09T00:05:59.111Z,15.13
2017-09-09T00:06:39.654Z,15.17
2017-09-09T00:07:20.175Z,15.1
2017-09-09T00:08:00.709Z,15.11
2017-09-09T00:08:41.238Z,15.13
2017-09-09T00:09:21.774Z,15.16
2017-09-09T00:10:02.293Z,15.16
2017-09-09T00:10:42.822Z,15.14
2017-09-09T00:11:23.358Z,15.14
2017-09-09T00:12:03.892Z,15.13
2017-09-09T00:12:44.402Z,15.16
2017-09-09T00:13:24.924Z,15.13
2017-09-09T00:14:05.444Z,15.16
2017-09-09T00:14:45.984Z,15.14
2017-09-09T00:15:26.521Z,15.13
2017-09-09T00:16:07.053Z,15.17
2017-09-09T00:16:47.578Z,15.14
2017-09-09T00:17:28.108Z,15.19
2017-09-09T00:18:08.642Z,15.16
2017-09-09T00:18:49.187Z,15.19
2017-09-09T00:19:29.720Z,15.16
2017-09-09T00:20:10.259Z,15.1
2017-09-09T00:20:57.702Z,15.13
2017-09-09T00:21:38.240Z,15.16
2017-09-09T00:22:18.779Z,15.2
2017-09-09T00:22:59.321Z,15.1
2017-09-09T00:23:39.858Z,15.13
2017-09-09T00:24:20.385Z,15.16
2017-09-09T00:25:00.909Z,15.16
2017-09-09T00:25:41.437Z,15.14
2017-09-09T00:26:21.983Z,15.17
2017-09-09T00:27:02.501Z,15.14
2017-09-09T00:27:43.038Z,15.19
2017-09-09T00:28:23.566Z,15.17
2017-09-09T00:29:04.091Z,15.17
2017-09-09T00:29:44.625Z,15.1
2017-09-09T00:30:25.161Z,15.1
2017-09-09T00:31:05.707Z,15.11
2017-09-09T00:31:46.233Z,15.14
2017-09-09T00:32:26.759Z,15.13
2017-09-09T00:33:07.297Z,15.19
2017-09-09T00:33:47.839Z,15.21
2017-09-09T00:34:28.379Z,15.17
2017-09-09T00:35:08.916Z,15.17
2017-09-09T00:35:49.443Z,15.14
2017-09-09T00:36:29.972Z,15.14
2017-09-09T00:37:10.483Z,15.17
2017-09-09T00:37:51.018Z,15.13
2017-09-09T00:38:31.544Z,15.16
2017-09-09T00:39:12.080Z,15.17
2017-09-09T00:39:52.614Z,15.17
2017-09-09T00:40:33.149Z,15.16
2017-09-09T00:41:13.687Z,15.25
2017-09-09T00:41:54.205Z,15.21
2017-09-09T00:42:34.727Z,15.21
2017-09-09T00:43:15.248Z,15.16
2017-09-09T00:43:55.800Z,15.21
2017-09-09T00:44:36.349Z,15.25
2017-09-09T00:45:16.875Z,15.16
2017-09-09T00:45:57.401Z,15.19
2017-09-09T00:46:37.921Z,15.17
2017-09-09T00:47:18.446Z,15.19
2017-09-09T00:47:58.999Z,15.28
2017-09-09T00:48:39.499Z,15.25
2017-09-09T00:49:20.039Z,15.28
2017-09-09T00:50:00.552Z,15.23
2017-09-09T00:50:41.092Z,15.2
2017-09-09T00:51:21.631Z,15.19
2017-09-09T00:52:02.169Z,15.23
2017-09-09T00:52:42.707Z,15.2
2017-09-09T00:53:23.238Z,15.25
2017-09-09T00:54:03.773Z,15.17
2017-09-09T00:54:44.300Z,15.2
2017-09-09T00:55:24.832Z,15.27
2017-09-09T00:56:05.354Z,15.23
2017-09-09T00:56:45.877Z,15.2
2017-09-09T00:57:26.425Z,15.19
2017-09-09T00:58:06.962Z,15.19
2017-09-09T00:58:47.500Z,15.23
2017-09-09T00:59:28.037Z,15.2
2017-09-09T01:00:08.559Z,15.2
2017-09-09T01:00:49.083Z,15.25
2017-09-09T01:01:29.628Z,15.19
2017-09-09T01:02:10.140Z,15.27
2017-09-09T01:02:50.684Z,15.25
2017-09-09T01:03:31.244Z,15.2
2017-09-09T01:04:11.735Z,15.21
2017-09-09T01:04:52.273Z,15.23
2017-09-09T01:05:32.806Z,15.23
2017-09-09T01:06:13.337Z,15.21
2017-09-09T01:06:53.855Z,15.16
2017-09-09T01:07:34.389Z,15.2
2017-09-09T01:08:14.927Z,15.19
2017-09-09T01:08:55.465Z,15.17
2017-09-09T01:09:36.003Z,15.14
2017-09-09T01:10:16.543Z,15.17
2017-09-09T01:10:57.084Z,15.11
2017-09-09T01:11:37.590Z,15.17
2017-09-09T01:12:18.113Z,15.16
2017-09-09T01:12:58.630Z,15.19
2017-09-09T01:13:39.150Z,15.11
2017-09-09T01:14:19.670Z,15.17
2017-09-09T01:15:00.205Z,15.19
2017-09-09T01:15:40.748Z,15.11
2017-09-09T01:16:21.275Z,15.13
2017-09-09T01:17:01.806Z,15.17
2017-09-09T01:17:42.352Z,15.13
2017-09-09T01:18:22.882Z,15.19
2017-09-09T01:19:03.413Z,15.16
2017-09-09T01:19:43.950Z,15.16
2017-09-09T01:20:24.487Z,15.1
2017-09-09T01:21:05.013Z,15.13
2017-09-09T01:21:45.545Z,15.11
2017-09-09T01:22:26.093Z,15.13
2017-09-09T01:23:06.593Z,15.17
2017-09-09T01:23:47.132Z,15.14
2017-09-09T01:24:27.666Z,15.03
2017-09-09T01:25:08.184Z,15.13
2017-09-09T01:25:48.712Z,15.16
2017-09-09T01:26:29.252Z,15.13
2017-09-09T01:27:09.762Z,15.16
2017-09-09T01:27:50.302Z,15.16
2017-09-09T01:28:30.848Z,15.09
2017-09-09T01:29:11.360Z,15.1
2017-09-09T01:29:51.880Z,15.13
2017-09-09T01:30:32.399Z,15.1
2017-09-09T01:31:12.936Z,15.17
2017-09-09T01:31:53.479Z,15.13
2017-09-09T01:32:33.996Z,15.17
2017-09-09T01:33:14.529Z,15.17
2017-09-09T01:33:55.048Z,15.2
2017-09-09T01:34:35.580Z,15.17
2017-09-09T01:35:16.116Z,15.16
2017-09-09T01:35:56.646Z,15.17
2017-09-09T01:36:37.215Z,15.19
2017-09-09T01:37:17.709Z,15.13
2017-09-09T01:37:58.244Z,15.14
2017-09-09T01:38:38.783Z,15.16
2017-09-09T01:39:19.341Z,15.19
2017-09-09T01:39:59.847Z,15.13
2017-09-09T01:40:40.376Z,15.09
2017-09-09T01:41:20.893Z,15.14
2017-09-09T01:42:01.440Z,15.03
2017-09-09T01:42:41.967Z,15.14
2017-09-09T01:43:22.493Z,15.07
2017-09-09T01:44:03.032Z,15.07
2017-09-09T01:44:43.551Z,15.03
2017-09-09T01:45:24.080Z,15.06
2017-09-09T01:46:04.625Z,15.02
2017-09-09T01:46:45.166Z,15.09
2017-09-09T01:47:25.708Z,15.06
2017-09-09T01:48:06.231Z,15.09
2017-09-09T01:48:46.762Z,15.09
2017-09-09T01:49:27.298Z,15.09
2017-09-09T01:50:07.824Z,15.09
2017-09-09T01:50:48.364Z,15.09
2017-09-09T01:51:28.890Z,15.07
2017-09-09T01:52:09.416Z,15.06
2017-09-09T01:52:49.955Z,15.07
2017-09-09T01:53:30.491Z,15.07
2017-09-09T01:54:11.022Z,15.09
2017-09-09T01:54:51.546Z,15.09
2017-09-09T01:55:32.074Z,15.03
2017-09-09T01:56:12.627Z,15.03
2017-09-09T01:56:53.147Z,15.06
2017-09-09T01:57:33.687Z,15.07
2017-09-09T01:58:14.221Z,15.1
2017-09-09T01:58:54.763Z,15.09
2017-09-09T01:59:35.290Z,15.06
2017-09-09T02:00:15.816Z,15.03
2017-09-09T02:00:56.339Z,15.07
2017-09-09T02:01:36.877Z,15.17
2017-09-09T02:02:17.405Z,15.1
2017-09-09T02:02:57.931Z,15.09
2017-09-09T02:04:46.878Z,15.14
2017-09-09T02:05:27.396Z,15.03
2017-09-09T02:06:07.920Z,15.07
2017-09-09T02:06:48.448Z,15.11
2017-09-09T02:07:28.972Z,15.01
2017-09-09T02:08:09.495Z,15.09
2017-09-09T02:08:50.022Z,15.14
2017-09-09T02:09:30.539Z,15.09
2017-09-09T02:10:11.085Z,15.07
2017-09-09T02:10:51.588Z,15.07
2017-09-09T02:11:32.122Z,15.03
2017-09-09T02:12:12.634Z,15.16
2017-09-09T02:12:53.168Z,15.03
2017-09-09T02:13:33.704Z,15.03
2017-09-09T02:14:14.241Z,15.01
2017-09-09T02:14:54.771Z,15.02
2017-09-09T02:15:35.296Z,15.03
2017-09-09T02:16:15.832Z,15.02
2017-09-09T02:16:56.357Z,15.03
2017-09-09T02:17:36.893Z,15.07
2017-09-09T02:18:17.429Z,15.09
2017-09-09T02:18:57.968Z,15.03
2017-09-09T02:19:38.524Z,15.03
2017-09-09T02:20:19.039Z,15.03
2017-09-09T02:20:59.569Z,15.02
2017-09-09T02:21:40.112Z,15.02
2017-09-09T02:22:20.647Z,15.02
2017-09-09T02:23:01.189Z,14.95
2017-09-09T02:23:41.719Z,14.95
2017-09-09T02:24:22.254Z,14.94
2017-09-09T02:25:02.785Z,14.96
2017-09-09T02:25:43.313Z,14.98
2017-09-09T02:26:23.828Z,14.98
2017-09-09T02:27:04.357Z,14.96
2017-09-09T02:27:44.863Z,14.95
2017-09-09T02:28:25.403Z,14.95
2017-09-09T02:29:05.914Z,14.95
2017-09-09T02:29:46.441Z,14.91
2017-09-09T02:30:26.970Z,14.92
2017-09-09T02:31:07.527Z,14.94
2017-09-09T02:31:48.068Z,14.92
2017-09-09T02:32:28.600Z,14.92
2017-09-09T02:33:09.111Z,14.96
2017-09-09T02:33:49.648Z,14.86
2017-09-09T02:34:30.187Z,14.94
2017-09-09T02:35:10.743Z,14.88
2017-09-09T02:35:51.271Z,14.83
2017-09-09T02:36:31.789Z,14.84
2017-09-09T02:37:12.325Z,14.86
2017-09-09T02:37:52.856Z,14.81
2017-09-09T02:38:33.385Z,14.88
2017-09-09T02:39:13.917Z,14.81
2017-09-09T02:39:54.457Z,14.83
2017-09-09T02:40:34.987Z,14.84
2017-09-09T02:41:15.519Z,14.88
2017-09-09T02:41:56.032Z,14.86
2017-09-09T02:42:36.563Z,14.73
2017-09-09T02:43:17.102Z,14.83
2017-09-09T02:43:57.642Z,14.81
2017-09-09T02:44:38.152Z,14.8
2017-09-09T02:45:18.685Z,14.73
2017-09-09T02:45:59.225Z,14.83
2017-09-09T02:46:39.755Z,14.8
2017-09-09T02:47:20.295Z,14.78
2017-09-09T02:48:00.821Z,14.77
2017-09-09T02:48:41.363Z,14.8
2017-09-09T02:49:21.906Z,14.75
2017-09-09T02:50:02.443Z,14.69
2017-09-09T02:50:42.985Z,14.7
2017-09-09T02:51:23.519Z,14.73
2017-09-09T02:52:04.059Z,14.7
2017-09-09T02:52:44.597Z,14.7
2017-09-09T02:53:25.115Z,14.73
2017-09-09T02:54:05.662Z,14.69
2017-09-09T02:54:46.189Z,14.72
2017-09-09T02:55:26.721Z,14.7
2017-09-09T02:56:07.247Z,14.69
2017-09-09T02:56:47.775Z,14.77
2017-09-09T02:57:28.306Z,14.77
2017-09-09T02:58:08.823Z,14.73
2017-09-09T02:58:49.363Z,14.75
2017-09-09T02:59:29.896Z,14.69
2017-09-09T03:00:10.446Z,14.75
2017-09-09T03:00:50.978Z,14.75
2017-09-09T03:01:31.512Z,14.72
2017-09-09T03:02:12.047Z,14.73
2017-09-09T03:02:52.575Z,14.77
2017-09-09T03:03:33.112Z,14.73
2017-09-09T03:04:13.649Z,14.73
2017-09-09T03:04:54.180Z,14.75
2017-09-09T03:05:34.723Z,14.75
2017-09-09T03:06:15.251Z,14.77
2017-09-09T03:06:55.793Z,14.7
2017-09-09T03:07:36.326Z,14.75
2017-09-09T03:08:16.858Z,14.77
2017-09-09T03:08:57.386Z,14.75
2017-09-09T03:09:37.919Z,14.75
2017-09-09T03:10:18.455Z,14.7
2017-09-09T03:10:58.993Z,14.69
2017-09-09T03:11:39.534Z,14.75
2017-09-09T03:12:20.073Z,14.73
2017-09-09T03:13:00.592Z,14.73
2017-09-09T03:13:41.132Z,14.7
2017-09-09T03:14:21.669Z,14.6
2017-09-09T03:15:02.203Z,14.77
2017-09-09T03:15:42.742Z,14.68
2017-09-09T03:16:23.269Z,14.69
2017-09-09T03:17:03.799Z,14.72
2017-09-09T03:17:44.329Z,14.68
2017-09-09T03:18:24.865Z,14.7
2017-09-09T03:19:05.447Z,14.69
2017-09-09T03:19:45.982Z,14.64
2017-09-09T03:20:26.498Z,14.6
2017-09-09T03:21:07.035Z,14.61
2017-09-09T03:21:47.571Z,14.68
2017-09-09T03:22:28.149Z,14.61
2017-09-09T03:23:08.657Z,14.77
2017-09-09T03:23:49.204Z,14.62
2017-09-09T03:24:29.710Z,14.65
2017-09-09T03:25:10.238Z,14.73
2017-09-09T03:25:50.767Z,14.64
2017-09-09T03:26:31.293Z,14.65
2017-09-09T03:27:11.830Z,14.62
2017-09-09T03:27:52.366Z,14.61
2017-09-09T03:28:32.898Z,14.6
2017-09-09T03:29:13.518Z,14.57
2017-09-09T03:29:54.174Z,14.64
2017-09-09T03:30:34.816Z,14.69
2017-09-09T03:31:15.282Z,14.65
2017-09-09T03:31:55.811Z,14.65
2017-09-09T03:32:36.351Z,14.58
2017-09-09T03:33:16.908Z,14.64
2017-09-09T03:33:57.447Z,14.64
2017-09-09T03:34:37.995Z,14.57
2017-09-09T03:35:18.520Z,14.55
2017-09-09T03:35:59.057Z,14.64
2017-09-09T03:36:39.599Z,14.57
2017-09-09T03:37:20.119Z,14.61
2017-09-09T03:38:00.660Z,14.55
2017-09-09T03:38:41.373Z,14.61
2017-09-09T03:39:22.056Z,14.61
2017-09-09T03:40:02.619Z,14.61
2017-09-09T03:40:43.146Z,14.54
2017-09-09T03:41:23.674Z,14.57
2017-09-09T03:42:04.202Z,14.52
2017-09-09T03:42:44.719Z,14.62
2017-09-09T03:43:25.243Z,14.65
2017-09-09T03:44:05.748Z,14.52
2017-09-09T03:44:46.298Z,14.58
2017-09-09T03:45:26.827Z,14.55
2017-09-09T03:46:07.367Z,14.58
2017-09-09T03:46:47.907Z,14.52
2017-09-09T03:47:28.420Z,14.57
2017-09-09T03:48:08.947Z,14.51
2017-09-09T03:48:49.493Z,14.54
2017-09-09T03:49:30.009Z,14.57
2017-09-09T03:50:10.542Z,14.52
2017-09-09T03:50:51.077Z,14.51
2017-09-09T03:51:31.619Z,14.6
2017-09-09T03:52:12.143Z,14.6
2017-09-09T03:52:52.676Z,14.57
2017-09-09T03:53:33.212Z,14.52
2017-09-09T03:54:13.743Z,14.6
2017-09-09T03:54:54.283Z,14.52
2017-09-09T03:55:34.804Z,14.58
2017-09-09T03:56:15.336Z,14.52
2017-09-09T03:56:55.865Z,14.51
2017-09-09T03:57:36.401Z,14.57
2017-09-09T03:58:16.936Z,14.58
2017-09-09T03:58:57.482Z,14.57
2017-09-09T03:59:38.001Z,14.5
2017-09-09T04:00:18.528Z,14.47
2017-09-09T04:00:59.049Z,14.47
2017-09-09T04:01:39.600Z,14.51
2017-09-09T04:02:20.136Z,14.51
2017-09-09T04:03:00.657Z,14.47
2017-09-09T04:03:41.174Z,14.55
2017-09-09T04:04:21.705Z,14.55
2017-09-09T04:05:02.257Z,14.54
2017-09-09T04:05:42.797Z,14.57
2017-09-09T04:06:23.319Z,14.52
2017-09-09T04:07:03.847Z,14.54
2017-09-09T04:07:44.357Z,14.57
2017-09-09T04:08:24.878Z,14.55
2017-09-09T04:09:05.386Z,14.54
2017-09-09T04:09:45.946Z,14.52
2017-09-09T04:10:26.481Z,14.58
2017-09-09T04:11:07.001Z,14.5
2017-09-09T04:11:47.532Z,14.51
2017-09-09T04:12:28.045Z,14.54
2017-09-09T04:13:08.578Z,14.52
2017-09-09T04:13:49.102Z,14.52
2017-09-09T04:14:29.615Z,14.51
2017-09-09T04:15:10.138Z,14.57
2017-09-09T04:15:50.654Z,14.55
2017-09-09T04:16:31.171Z,14.64
2017-09-09T04:17:11.701Z,14.68
2017-09-09T04:17:52.219Z,14.62
2017-09-09T04:18:32.758Z,14.68
2017-09-09T04:19:13.292Z,14.57
2017-09-09T04:19:53.819Z,14.69
2017-09-09T04:20:34.351Z,14.69
2017-09-09T04:21:14.882Z,14.7
2017-09-09T04:21:55.421Z,14.72
2017-09-09T04:22:35.961Z,14.69
2017-09-09T04:23:16.498Z,14.68
2017-09-09T04:23:57.024Z,14.61
2017-09-09T04:24:37.554Z,14.62
2017-09-09T04:25:18.081Z,14.6
2017-09-09T04:25:58.614Z,14.65
2017-09-09T04:26:39.152Z,14.65
2017-09-09T04:27:19.682Z,14.61
2017-09-09T04:28:00.205Z,14.61
2017-09-09T04:28:40.737Z,14.55
2017-09-09T04:29:21.260Z,14.54
2017-09-09T04:30:01.803Z,14.55
2017-09-09T04:30:42.340Z,14.52
2017-09-09T04:31:22.871Z,14.54
2017-09-09T04:32:03.390Z,14.52
2017-09-09T04:32:43.939Z,14.51
2017-09-09T04:33:24.467Z,14.46
2017-09-09T04:34:05.000Z,14.55
2017-09-09T04:34:45.528Z,14.55
2017-09-09T04:35:26.042Z,14.57
2017-09-09T04:36:06.582Z,14.45
2017-09-09T04:36:47.120Z,14.5
2017-09-09T04:37:27.639Z,14.55
2017-09-09T04:38:08.176Z,14.5
2017-09-09T04:38:48.698Z,14.46
2017-09-09T04:39:29.235Z,14.46
2017-09-09T04:40:09.767Z,14.39
2017-09-09T04:40:50.298Z,14.4
2017-09-09T04:41:30.830Z,14.54
2017-09-09T04:42:12.143Z,14.43
2017-09-09T04:42:52.756Z,14.43
2017-09-09T04:43:33.791Z,14.52
2017-09-09T04:44:14.948Z,14.51
2017-09-09T04:44:55.496Z,14.52
2017-09-09T04:45:36.185Z,14.47
2017-09-09T04:47:31.126Z,14.46
2017-09-09T04:48:11.735Z,14.47
2017-09-09T04:48:52.236Z,14.46
2017-09-09T04:49:32.771Z,14.5
2017-09-09T04:50:13.424Z,14.45
2017-09-09T04:50:54.153Z,14.47
2017-09-09T04:51:35.266Z,14.55
2017-09-09T04:52:15.818Z,14.5
2017-09-09T04:52:56.807Z,14.6
2017-09-09T04:53:37.709Z,14.55
2017-09-09T04:54:18.246Z,14.57
2017-09-09T04:54:58.933Z,14.5
2017-09-09T04:55:39.448Z,14.51
2017-09-09T04:56:20.024Z,14.51
2017-09-09T04:57:01.326Z,14.5
2017-09-09T04:57:44.166Z,14.52
2017-09-09T04:58:24.343Z,14.57
2017-09-09T04:59:04.866Z,14.47
2017-09-09T04:59:45.385Z,14.52
2017-09-09T05:00:26.227Z,14.47
2017-09-09T05:01:06.689Z,14.43
2017-09-09T05:01:47.358Z,14.4
2017-09-09T05:02:28.110Z,14.47
2017-09-09T05:03:08.953Z,14.4
2017-09-09T05:03:49.473Z,14.37
2017-09-09T05:04:30.040Z,14.2
2017-09-09T05:05:10.565Z,14.22
2017-09-09T05:05:51.166Z,14.24
2017-09-09T05:06:31.679Z,14.24
2017-09-09T05:07:12.218Z,14.25
2017-09-09T05:07:53.046Z,14.2
2017-09-09T05:08:33.547Z,14.22
2017-09-09T05:09:14.064Z,14.1
2017-09-09T05:09:54.604Z,14.04
2017-09-09T05:10:35.196Z,14.04
2017-09-09T05:11:15.769Z,14.03
2017-09-09T05:11:56.435Z,14.09
2017-09-09T05:12:37.016Z,13.96
2017-09-09T05:13:17.681Z,14
2017-09-09T05:13:58.203Z,14.03
2017-09-09T05:14:38.718Z,14.04
2017-09-09T05:15:19.262Z,13.99
2017-09-09T05:15:59.789Z,14.02
2017-09-09T05:16:40.468Z,13.99
2017-09-09T05:17:21.056Z,14.02
2017-09-09T05:18:01.684Z,14.02
2017-09-09T05:18:42.237Z,14
2017-09-09T05:19:22.762Z,14.02
2017-09-09T05:20:03.297Z,14.07
2017-09-09T05:20:43.821Z,14.06
2017-09-09T05:21:24.339Z,14.03
2017-09-09T05:22:05.098Z,14.03
2017-09-09T05:22:45.940Z,14
2017-09-09T05:23:26.445Z,14.02
2017-09-09T05:24:06.972Z,14.06
2017-09-09T05:24:47.636Z,14.03
2017-09-09T05:25:28.158Z,13.99
2017-09-09T05:26:08.791Z,14.04
2017-09-09T05:26:49.339Z,14.02
2017-09-09T05:27:29.874Z,13.97
2017-09-09T05:28:10.448Z,13.99
2017-09-09T05:28:51.051Z,13.99
2017-09-09T05:29:31.589Z,13.99
2017-09-09T05:30:12.292Z,14.07
2017-09-09T05:30:52.827Z,14.03
2017-09-09T05:31:33.365Z,13.99
2017-09-09T05:32:13.915Z,14
2017-09-09T05:32:54.521Z,14.02
2017-09-09T05:33:35.055Z,14.06
2017-09-09T05:34:15.570Z,13.97
2017-09-09T05:34:56.303Z,13.99
2017-09-09T05:35:36.747Z,14.07
2017-09-09T05:36:17.300Z,13.97
2017-09-09T05:36:57.818Z,13.95
2017-09-09T05:37:38.431Z,13.97
2017-09-09T05:38:19.091Z,14.03
2017-09-09T05:38:59.586Z,14.02
2017-09-09T05:39:40.106Z,14.03
2017-09-09T05:40:20.722Z,14
2017-09-09T05:41:01.354Z,14.04
2017-09-09T05:41:41.869Z,13.99
2017-09-09T05:42:22.387Z,14.02
2017-09-09T05:43:02.920Z,14.04
2017-09-09T05:43:43.442Z,13.95
2017-09-09T05:44:23.975Z,13.99
2017-09-09T05:45:04.506Z,13.95
2017-09-09T05:45:45.497Z,14.02
2017-09-09T05:46:26.188Z,13.92
2017-09-09T05:47:06.819Z,13.97
2017-09-09T05:47:47.442Z,13.95
2017-09-09T05:48:28.057Z,13.92
2017-09-09T05:49:08.592Z,13.91
2017-09-09T05:49:49.118Z,13.85
2017-09-09T05:50:29.647Z,13.92
2017-09-09T05:51:10.166Z,13.84
2017-09-09T05:51:50.844Z,13.88
2017-09-09T05:52:31.500Z,13.99
2017-09-09T05:53:11.943Z,13.91
2017-09-09T05:53:52.496Z,13.95
2017-09-09T05:54:33.028Z,13.96
2017-09-09T05:55:13.564Z,13.96
2017-09-09T05:55:54.111Z,13.95
2017-09-09T05:56:34.713Z,13.96
2017-09-09T05:57:15.336Z,13.99
2017-09-09T05:57:55.875Z,14.02
2017-09-09T05:58:36.601Z,13.99
2017-09-09T05:59:17.357Z,13.99
2017-09-09T05:59:57.876Z,14.02
2017-09-09T06:00:38.442Z,14.02
2017-09-09T06:01:19.078Z,14.02
2017-09-09T06:01:59.601Z,14.02
2017-09-09T06:02:40.139Z,14
2017-09-09T06:03:20.880Z,14.04
2017-09-09T06:04:01.607Z,14.04
2017-09-09T06:04:42.121Z,14.07
2017-09-09T06:05:22.876Z,14.03
2017-09-09T06:06:03.356Z,14.06
2017-09-09T06:06:43.876Z,14.04
2017-09-09T06:07:24.405Z,14.03
2017-09-09T06:08:05.004Z,14.2
2017-09-09T06:08:45.546Z,14.06
2017-09-09T06:09:26.067Z,14.07
2017-09-09T06:10:06.676Z,14.07
2017-09-09T06:10:47.204Z,14.07
2017-09-09T06:11:27.770Z,14.06
2017-09-09T06:12:08.290Z,14.2
2017-09-09T06:12:48.829Z,14.06
2017-09-09T06:13:30.081Z,14.12
2017-09-09T06:14:10.602Z,14.04
2017-09-09T06:14:51.139Z,14.17
2017-09-09T06:15:31.654Z,14.07
2017-09-09T06:16:12.158Z,14.14
2017-09-09T06:16:52.691Z,14.14
2017-09-09T06:17:33.222Z,14.12
2017-09-09T06:18:13.882Z,14.2
2017-09-09T06:18:54.517Z,14.06
2017-09-09T06:19:35.081Z,14.15
2017-09-09T06:20:15.621Z,14.14
2017-09-09T06:20:56.144Z,14.22
2017-09-09T06:21:36.790Z,14.17
2017-09-09T06:22:17.408Z,14.15
2017-09-09T06:22:57.935Z,14.14
2017-09-09T06:23:38.543Z,14.1
2017-09-09T06:24:19.086Z,14.2
2017-09-09T06:24:59.623Z,14.15
2017-09-09T06:25:40.499Z,14.1
2017-09-09T06:26:21.662Z,14.22
2017-09-09T06:27:02.301Z,14.21
2017-09-09T06:27:42.947Z,14.21
2017-09-09T06:28:23.482Z,14.22
2017-09-09T06:29:04.081Z,14.06
2017-09-09T06:29:44.847Z,14.21
2017-09-09T06:30:25.379Z,14.22
2017-09-09T06:31:05.938Z,14.24
2017-09-09T06:31:46.479Z,14.25
2017-09-09T06:32:27.128Z,14.2
2017-09-09T06:33:07.660Z,14.24
2017-09-09T06:33:48.239Z,14.2
2017-09-09T06:34:28.775Z,14.14
2017-09-09T06:35:09.290Z,14.25
2017-09-09T06:35:49.868Z,14.14
2017-09-09T06:36:30.530Z,14.14
2017-09-09T06:37:11.095Z,14.14
2017-09-09T06:37:51.622Z,14.06
2017-09-09T06:38:32.147Z,14.07
2017-09-09T06:39:12.783Z,14.03
2017-09-09T06:39:53.472Z,14
2017-09-09T06:40:34.959Z,14.02
2017-09-09T06:41:15.755Z,14
2017-09-09T06:41:56.825Z,14.03
2017-09-09T06:42:37.559Z,13.96
2017-09-09T06:43:18.465Z,14.02
2017-09-09T06:44:00.087Z,13.97
2017-09-09T06:44:40.952Z,13.89
2017-09-09T06:45:22.172Z,13.95
2017-09-09T06:46:02.677Z,13.92
2017-09-09T06:46:43.448Z,13.99
2017-09-09T06:47:24.386Z,13.92
2017-09-09T06:49:40.651Z,13.95
2017-09-09T06:50:21.290Z,13.91
2017-09-09T06:51:02.153Z,14.02
2017-09-09T06:51:42.870Z,14
2017-09-09T06:52:25.361Z,14.02
2017-09-09T06:53:06.106Z,14.02
2017-09-09T06:53:46.950Z,14.02
2017-09-09T06:54:27.519Z,14.04
2017-09-09T06:55:08.075Z,13.97
2017-09-09T06:55:48.729Z,13.99
2017-09-09T06:56:29.630Z,14.03
2017-09-09T06:57:10.720Z,14.03
2017-09-09T06:57:51.258Z,14.02
2017-09-09T06:58:31.927Z,14
2017-09-09T06:59:12.638Z,14.02
2017-09-09T06:59:53.317Z,14
2017-09-09T07:00:35.012Z,14.06
2017-09-09T07:01:15.603Z,14
2017-09-09T07:01:56.654Z,14.02
2017-09-09T07:02:37.356Z,14.03
2017-09-09T07:03:18.770Z,14.09
2017-09-09T07:03:59.947Z,14
2017-09-09T07:04:40.769Z,14.1
2017-09-09T07:05:21.341Z,14.15
2017-09-09T07:06:02.302Z,14.25
2017-09-09T07:06:43.339Z,14.18
2017-09-09T07:07:24.213Z,14.22
2017-09-09T07:08:04.847Z,14.22
2017-09-09T07:08:45.380Z,14.27
2017-09-09T07:09:26.220Z,14.27
2017-09-09T07:10:07.023Z,14.24
2017-09-09T07:10:48.084Z,14.29
2017-09-09T07:11:28.759Z,14.21
2017-09-09T07:12:09.484Z,14.21
2017-09-09T07:12:50.279Z,14.33
2017-09-09T07:13:30.888Z,14.29
2017-09-09T07:14:11.593Z,14.35
2017-09-09T07:14:52.264Z,14.36
2017-09-09T07:15:33.067Z,14.35
2017-09-09T07:16:13.715Z,14.35
2017-09-09T07:16:54.361Z,14.33
2017-09-09T07:17:35.151Z,14.29
2017-09-09T07:18:16.457Z,14.33
2017-09-09T07:18:57.387Z,14.42
2017-09-09T07:19:38.209Z,14.39
2017-09-09T07:20:18.903Z,14.43
2017-09-09T07:20:59.549Z,14.43
2017-09-09T07:21:40.401Z,14.46
2017-09-09T07:22:21.142Z,14.51
2017-09-09T07:23:01.816Z,14.45
2017-09-09T07:23:42.396Z,14.42
2017-09-09T07:24:23.043Z,14.47
2017-09-09T07:25:03.720Z,14.45
2017-09-09T07:25:44.522Z,14.42
2017-09-09T07:26:25.901Z,14.55
2017-09-09T07:27:07.247Z,14.55
2017-09-09T07:27:47.935Z,14.55
2017-09-09T07:28:28.738Z,14.47
2017-09-09T07:29:09.739Z,14.57
2017-09-09T07:29:50.582Z,14.54
2017-09-09T07:30:31.644Z,14.58
2017-09-09T07:31:12.940Z,14.51
2017-09-09T07:31:54.879Z,14.61
2017-09-09T07:32:36.292Z,14.6
2017-09-09T07:33:16.696Z,14.5
2017-09-09T07:33:57.389Z,14.57
2017-09-09T07:34:38.527Z,14.47
2017-09-09T07:35:19.180Z,14.5
2017-09-09T07:35:59.993Z,14.52
2017-09-09T07:36:40.801Z,14.52
2017-09-09T07:37:21.405Z,14.54
2017-09-09T07:38:02.027Z,14.43
2017-09-09T07:38:42.653Z,14.4
2017-09-09T07:39:23.290Z,14.46
2017-09-09T07:41:48.230Z,14.43
2017-09-09T07:42:28.899Z,14.46
2017-09-09T07:43:09.529Z,14.57
2017-09-09T07:43:50.220Z,14.46
2017-09-09T07:44:30.793Z,14.51
2017-09-09T07:45:11.455Z,14.55
2017-09-09T07:45:52.701Z,14.47
2017-09-09T07:46:33.590Z,14.55
2017-09-09T07:47:16.121Z,14.55
2017-09-09T07:47:58.520Z,14.52
2017-09-09T07:48:40.586Z,14.51
2017-09-09T07:49:21.101Z,14.52
2017-09-09T07:50:01.635Z,14.54
2017-09-09T07:50:42.175Z,14.54
2017-09-09T07:51:22.695Z,14.57
2017-09-09T07:52:03.229Z,14.54
2017-09-09T07:52:43.755Z,14.51
2017-09-09T07:53:24.281Z,14.55
2017-09-09T07:54:04.806Z,14.58
2017-09-09T07:54:45.317Z,14.65
2017-09-09T07:55:25.852Z,14.73
2017-09-09T07:56:06.376Z,14.62
2017-09-09T07:56:46.916Z,14.6
2017-09-09T07:57:27.445Z,14.68
2017-09-09T07:58:07.961Z,14.73
2017-09-09T07:58:48.487Z,14.75
2017-09-09T07:59:29.019Z,14.7
2017-09-09T08:00:09.544Z,14.75
2017-09-09T08:00:50.078Z,14.73
2017-09-09T08:01:30.596Z,14.78
2017-09-09T08:02:11.131Z,14.72
2017-09-09T08:02:51.669Z,14.78
2017-09-09T08:03:32.205Z,14.68
2017-09-09T08:04:12.733Z,14.81
2017-09-09T08:04:53.264Z,14.75
2017-09-09T08:05:33.770Z,14.78
2017-09-09T08:06:14.306Z,14.81
2017-09-09T08:06:54.843Z,14.78
2017-09-09T08:07:35.350Z,14.77
2017-09-09T08:08:15.867Z,14.83
2017-09-09T08:08:56.396Z,14.84
2017-09-09T08:09:36.934Z,14.96
2017-09-09T08:10:17.458Z,14.98
2017-09-09T08:10:57.983Z,15.07
2017-09-09T08:11:38.514Z,15.03
2017-09-09T08:12:19.049Z,15.06
2017-09-09T08:12:59.586Z,15.13
2017-09-09T08:13:40.121Z,15.17
2017-09-09T08:14:20.642Z,15.13
2017-09-09T08:15:01.162Z,15.16
2017-09-09T08:15:41.674Z,15.14
2017-09-09T08:16:22.230Z,15.17
2017-09-09T08:17:02.727Z,15.1
2017-09-09T08:17:43.259Z,15.16
2017-09-09T08:18:23.789Z,15.17
2017-09-09T08:19:04.309Z,15.14
2017-09-09T08:19:44.815Z,15.06
2017-09-09T08:20:25.352Z,15.06
2017-09-09T08:21:05.875Z,15.11
2017-09-09T08:21:46.420Z,15.11
2017-09-09T08:22:26.931Z,14.99
2017-09-09T08:23:07.461Z,15.11
2017-09-09T08:23:48.015Z,15.03
2017-09-09T08:24:28.539Z,15.01
2017-09-09T08:25:09.074Z,14.98
2017-09-09T08:25:49.605Z,14.84
2017-09-09T08:26:30.162Z,14.83
2017-09-09T08:27:10.700Z,14.89
2017-09-09T08:27:51.229Z,14.84
2017-09-09T08:28:31.742Z,14.78
2017-09-09T08:29:12.257Z,14.77
2017-09-09T08:29:52.777Z,14.72
2017-09-09T08:30:33.297Z,14.73
2017-09-09T08:31:13.813Z,14.68
2017-09-09T08:31:54.352Z,14.61
2017-09-09T08:32:34.889Z,14.6
2017-09-09T08:33:15.433Z,14.64
2017-09-09T08:33:55.960Z,14.61
2017-09-09T08:34:36.487Z,14.69
2017-09-09T08:35:17.020Z,14.55
2017-09-09T08:35:57.546Z,14.6
2017-09-09T08:36:38.064Z,14.65
2017-09-09T08:37:18.621Z,14.68
2017-09-09T08:37:59.132Z,14.61
2017-09-09T08:38:39.666Z,14.75
2017-09-09T08:39:20.228Z,14.73
2017-09-09T08:40:00.738Z,14.81
2017-09-09T08:40:41.299Z,14.73
2017-09-09T08:41:21.830Z,14.73
2017-09-09T08:42:02.380Z,14.83
2017-09-09T08:42:42.885Z,14.83
2017-09-09T08:43:23.400Z,14.83
2017-09-09T08:44:03.929Z,14.91
2017-09-09T08:44:44.438Z,14.81
2017-09-09T08:45:24.964Z,14.83
2017-09-09T08:46:05.443Z,14.86
2017-09-09T08:46:45.968Z,14.81
2017-09-09T08:47:26.423Z,14.84
2017-09-09T08:48:06.924Z,14.91
2017-09-09T08:48:47.455Z,14.92
2017-09-09T08:49:27.950Z,14.95
2017-09-09T08:50:08.463Z,14.95
2017-09-09T08:50:48.999Z,14.94
2017-09-09T08:51:29.484Z,14.92